Time;durP1;ratioP1;P1;durP2;ratioP2;P2;SDS_P1;SDS_P2;PMS_P1;PMS_P2;Temp;Humidity;BMP_temperature;BMP_pressure;BME280_temperature;BME280_humidity;BME280_pressure;Samples;Min_cycle;Max_cycle;Signal;HPM_P1;HPM_P2
2021/01/03 00:00:36;;;;;;;80.05;34.70;;;;;;;2.37;91.63;100045.16;5057612;28;20055;-69
2021/01/03 00:03:03;;;;;;;73.13;34.28;;;;;;;2.49;91.79;100068.53;5057946;28;20065;-68
2021/01/03 00:05:31;;;;;;;77.28;34.47;;;;;;;2.55;91.59;100081.53;5039678;28;20296;-68
2021/01/03 00:07:58;;;;;;;84.63;37.15;;;;;;;2.58;91.40;100084.06;5057698;28;20053;-70
2021/01/03 00:10:26;;;;;;;78.35;35.25;;;;;;;2.55;91.37;100071.00;5057848;28;20049;-69
2021/01/03 00:12:53;;;;;;;83.65;35.88;;;;;;;2.62;91.65;100066.38;5057829;28;20404;-70
2021/01/03 00:15:22;;;;;;;80.18;35.53;;;;;;;2.63;91.21;100072.53;5057385;28;20052;-70
2021/01/03 00:17:49;;;;;;;74.15;33.88;;;;;;;2.60;91.52;100073.50;5057744;28;20056;-70
2021/01/03 00:20:21;;;;;;;77.38;35.35;;;;;;;2.60;91.14;100062.94;5057635;28;20048;-70
2021/01/03 00:22:49;;;;;;;81.88;35.55;;;;;;;2.62;91.16;100066.38;5057496;28;20053;-70
2021/01/03 00:25:16;;;;;;;79.93;35.25;;;;;;;2.58;91.40;100064.78;5057158;28;20044;-70
2021/01/03 00:27:42;;;;;;;83.70;36.25;;;;;;;2.55;91.84;100065.72;5057184;28;20053;-70
2021/01/03 00:30:13;;;;;;;77.32;33.13;;;;;;;2.66;91.51;100067.19;5057030;28;20053;-68
2021/01/03 00:32:40;;;;;;;75.72;35.08;;;;;;;2.58;91.19;100060.34;5056669;28;20106;-68
2021/01/03 00:35:10;;;;;;;74.47;33.10;;;;;;;2.57;91.65;100063.91;5057189;28;20071;-69
2021/01/03 00:37:36;;;;;;;70.43;32.60;;;;;;;2.60;91.16;100057.69;5056635;28;20051;-69
2021/01/03 00:40:05;;;;;;;82.80;35.42;;;;;;;2.55;91.29;100055.19;5039076;28;20122;-68
2021/01/03 00:42:32;;;;;;;86.63;35.03;;;;;;;2.62;91.30;100055.00;5056355;28;20095;-69
2021/01/03 00:44:58;;;;;;;84.32;36.40;;;;;;;2.57;91.64;100045.44;5056399;28;20357;-68
2021/01/03 00:47:26;;;;;;;76.55;34.67;;;;;;;2.58;91.56;100052.44;5056779;28;20059;-69
2021/01/03 00:49:52;;;;;;;87.05;35.70;;;;;;;2.58;91.53;100055.06;5056754;28;20049;-69
2021/01/03 00:52:18;;;;;;;80.95;35.30;;;;;;;2.49;91.19;100029.00;5057162;28;20372;-69
2021/01/03 00:54:44;;;;;;;86.45;36.92;;;;;;;2.56;91.38;100043.72;5038963;28;20056;-70
2021/01/03 00:57:10;;;;;;;85.18;37.58;;;;;;;2.57;91.28;100052.50;5055701;28;20053;-70
2021/01/03 00:59:36;;;;;;;87.68;36.10;;;;;;;2.63;91.51;100043.56;5056502;28;20056;-70
2021/01/03 01:02:02;;;;;;;86.38;38.70;;;;;;;2.62;91.25;100041.81;5056306;28;20714;-70
2021/01/03 01:04:28;;;;;;;86.20;38.03;;;;;;;2.66;91.03;100046.13;5054789;28;20056;-70
2021/01/03 01:06:54;;;;;;;85.90;36.28;;;;;;;2.49;91.61;100034.28;5056521;28;20103;-70
2021/01/03 01:09:21;;;;;;;81.00;37.05;;;;;;;2.48;91.75;100042.22;5055265;28;20053;-70
2021/01/03 01:11:47;;;;;;;85.63;36.67;;;;;;;2.58;92.06;100043.69;5038979;28;20052;-70
2021/01/03 01:14:13;;;;;;;88.68;35.30;;;;;;;2.47;91.63;100045.78;5056470;28;20056;-70
2021/01/03 01:16:39;;;;;;;88.07;37.28;;;;;;;2.49;92.00;100036.91;5056631;28;20049;-70
2021/01/03 01:19:05;;;;;;;92.00;39.03;;;;;;;2.50;91.71;100050.97;5056276;28;20358;-70
2021/01/03 01:21:32;;;;;;;95.43;39.20;;;;;;;2.50;91.91;100040.44;5056200;28;20163;-69
2021/01/03 01:23:58;;;;;;;96.40;38.25;;;;;;;2.54;91.97;100045.56;5055959;28;20374;-69
2021/01/03 01:26:24;;;;;;;88.22;35.55;;;;;;;2.54;91.99;100052.59;5055962;28;20048;-69
2021/01/03 01:28:50;;;;;;;97.43;39.67;;;;;;;2.38;92.11;100020.56;5056132;28;20060;-70
2021/01/03 01:31:17;;;;;;;91.35;37.00;;;;;;;2.55;92.29;100044.66;5056184;28;20057;-70
2021/01/03 01:33:43;;;;;;;91.90;37.38;;;;;;;2.59;92.00;100048.06;5056084;28;20106;-70
2021/01/03 01:36:10;;;;;;;94.68;37.97;;;;;;;2.60;91.35;100043.66;5055951;28;20045;-70
2021/01/03 01:38:37;;;;;;;89.50;37.05;;;;;;;2.58;91.45;100049.81;5038297;28;20110;-69
2021/01/03 01:41:04;;;;;;;89.63;37.25;;;;;;;2.52;91.42;100035.97;5055674;28;20060;-69
2021/01/03 01:43:31;;;;;;;91.07;36.97;;;;;;;2.46;92.28;100042.28;5038214;28;20052;-69
2021/01/03 01:45:58;;;;;;;91.18;36.80;;;;;;;2.41;91.92;100037.13;5056069;28;20048;-69
2021/01/03 01:48:42;;;;;;;85.72;36.40;;;;;;;2.25;92.05;100013.03;5055687;28;20057;-70
2021/01/03 01:51:19;;;;;;;95.85;37.85;;;;;;;2.30;92.22;100019.00;5055768;28;20175;-69
2021/01/03 01:53:57;;;;;;;89.35;37.47;;;;;;;2.48;92.16;100042.22;5055407;28;20315;-69
2021/01/03 01:56:38;;;;;;;98.60;38.47;;;;;;;2.56;91.18;100043.72;5055642;28;20049;-69
2021/01/03 01:59:29;;;;;;;95.45;37.88;;;;;;;2.53;91.48;100041.19;5055877;28;20049;-70
2021/01/03 02:02:05;;;;;;;89.97;38.05;;;;;;;2.45;91.46;100032.63;5055442;28;20430;-69
2021/01/03 02:04:40;;;;;;;105.15;38.80;;;;;;;2.41;92.11;100041.56;5054659;28;20126;-70
2021/01/03 02:07:22;;;;;;;93.72;37.50;;;;;;;2.36;92.13;100033.78;5055457;28;20106;-70
2021/01/03 02:10:01;;;;;;;99.20;40.80;;;;;;;2.39;91.67;100031.06;5037898;28;20737;-69
2021/01/03 02:12:34;;;;;;;98.30;38.15;;;;;;;2.46;92.07;100044.06;5055320;28;20427;-69
2021/01/03 02:15:02;;;;;;;96.82;39.72;;;;;;;2.48;91.83;100051.00;5055369;28;20131;-69
2021/01/03 02:17:29;;;;;;;93.30;38.63;;;;;;;2.37;91.58;100034.63;5055119;28;20052;-70
2021/01/03 02:19:58;;;;;;;93.45;38.17;;;;;;;2.45;91.55;100045.81;5037720;28;20052;-69
2021/01/03 02:22:46;;;;;;;92.97;38.95;;;;;;;2.51;91.18;100048.25;5055325;28;20137;-69
2021/01/03 02:25:15;;;;;;;91.40;38.78;;;;;;;2.53;91.34;100045.59;5055295;28;20045;-69
2021/01/03 02:27:44;;;;;;;95.93;39.15;;;;;;;2.53;91.25;100042.97;5055041;28;20427;-69
2021/01/03 02:30:11;;;;;;;92.03;38.50;;;;;;;2.37;91.27;100030.25;5037577;28;20053;-70
2021/01/03 02:32:42;;;;;;;85.00;37.75;;;;;;;2.43;91.13;100032.69;5037434;28;20056;-70
2021/01/03 02:35:10;;;;;;;;;;;;;;;2.49;91.45;100050.09;5055315;28;20048;-70
2021/01/03 02:37:42;;;;;;;90.20;35.63;;;;;;;2.51;91.32;100048.25;5055134;28;20239;-69
2021/01/03 02:40:18;;;;;;;86.47;36.47;;;;;;;2.48;91.48;100045.75;5054929;28;20049;-69
2021/01/03 02:42:45;;;;;;;98.38;39.83;;;;;;;2.42;91.58;100051.19;5055116;28;20053;-69
2021/01/03 02:45:27;;;;;;;89.68;37.72;;;;;;;2.45;91.34;100035.28;5055167;28;20122;-69
2021/01/03 02:47:59;;;;;;;89.53;37.50;;;;;;;2.28;91.42;100018.19;5054842;28;20056;-69
2021/01/03 02:50:26;;;;;;;83.20;35.90;;;;;;;2.46;90.98;100052.81;5055077;28;20057;-69
2021/01/03 02:52:54;;;;;;;90.03;38.40;;;;;;;2.47;91.43;100040.50;5054984;28;20099;-69
2021/01/03 02:55:20;;;;;;;89.20;38.72;;;;;;;2.45;91.50;100043.16;5037146;28;20431;-70
2021/01/03 02:57:46;;;;;;;88.95;37.45;;;;;;;2.37;90.98;100024.09;5037449;28;20049;-70
2021/01/03 03:00:20;;;;;;;90.03;38.72;;;;;;;2.47;91.55;100036.09;5037363;28;20059;-69
2021/01/03 03:02:47;;;;;;;88.50;36.92;;;;;;;2.51;91.31;100036.88;5054932;28;20057;-69
2021/01/03 03:05:14;;;;;;;84.25;36.42;;;;;;;2.54;90.67;100042.03;5054712;28;20052;-69
2021/01/03 03:07:40;;;;;;;81.68;35.60;;;;;;;2.43;91.11;100031.81;5054959;28;20056;-69
2021/01/03 03:10:08;;;;;;;95.50;39.55;;;;;;;2.42;91.01;100030.97;5053572;28;20049;-69
2021/01/03 03:12:34;;;;;;;91.15;39.88;;;;;;;2.41;91.09;100033.66;5054465;28;20053;-69
2021/01/03 03:15:00;;;;;;;92.22;39.88;;;;;;;2.41;91.15;100029.22;5054475;28;20095;-69
2021/01/03 03:17:26;;;;;;;94.38;38.67;;;;;;;2.44;91.18;100025.66;5054453;28;20053;-69
2021/01/03 03:19:52;;;;;;;95.88;38.90;;;;;;;2.51;90.61;100021.06;5054670;28;20060;-70
2021/01/03 03:22:18;;;;;;;94.00;40.28;;;;;;;2.36;91.66;100017.13;5054738;28;20060;-69
2021/01/03 03:24:45;;;;;;;100.32;41.08;;;;;;;2.31;91.48;100028.63;5054300;28;20053;-69
2021/01/03 03:27:11;;;;;;;98.93;39.00;;;;;;;2.38;91.18;100026.69;5039628;28;20058;-69
2021/01/03 03:29:38;;;;;;;91.72;40.65;;;;;;;2.41;91.39;100023.13;5058332;28;20079;-70
2021/01/03 03:32:04;;;;;;;103.28;41.75;;;;;;;2.33;91.39;100025.13;5058225;28;20843;-69
2021/01/03 03:34:31;;;;;;;94.82;41.17;;;;;;;2.29;91.64;100025.19;5057297;28;20072;-70
2021/01/03 03:36:58;;;;;;;96.00;40.65;;;;;;;2.31;91.29;100020.72;5058253;28;20045;-69
2021/01/03 03:39:26;;;;;;;103.90;41.42;;;;;;;2.33;91.44;100025.97;5060632;28;20063;-68
2021/01/03 03:41:57;;;;;;;105.90;43.97;;;;;;;2.02;91.58;99985.56;5042151;28;20053;-70
2021/01/03 03:44:23;;;;;;;;;;;;;;;2.30;91.58;100031.34;5058845;28;20057;-70
2021/01/03 03:47:01;;;;;;;94.63;38.03;;;;;;;2.29;91.58;100035.72;5058017;28;20352;-70
2021/01/03 03:49:28;;;;;;;95.93;38.17;;;;;;;2.29;91.38;100033.09;5057325;28;20053;-70
2021/01/03 03:51:56;;;;;;;99.68;39.95;;;;;;;2.27;91.35;100034.91;5056869;28;20053;-70
2021/01/03 03:54:22;;;;;;;95.78;38.72;;;;;;;2.27;91.36;100026.13;5057877;28;20057;-70
2021/01/03 03:56:55;;;;;;;101.50;41.38;;;;;;;2.25;91.80;100020.06;5040356;28;20124;-70
2021/01/03 03:59:21;;;;;;;88.80;37.60;;;;;;;2.25;91.42;100020.94;5057941;28;20053;-70
2021/01/03 04:01:49;;;;;;;99.03;40.08;;;;;;;2.19;92.04;100021.13;5057850;28;20075;-70
2021/01/03 04:04:16;;;;;;;90.43;38.95;;;;;;;2.11;91.59;99999.38;5058049;28;20056;-70
2021/01/03 04:06:43;;;;;;;89.65;38.38;;;;;;;2.29;90.98;100019.06;5057801;28;20045;-70
2021/01/03 04:09:11;;;;;;;93.25;38.67;;;;;;;2.21;90.73;100011.38;5057883;28;20354;-70
2021/01/03 04:11:39;;;;;;;83.82;35.63;;;;;;;2.21;90.33;100021.91;5057674;28;20389;-70
2021/01/03 04:14:06;;;;;;;83.22;36.72;;;;;;;2.24;90.29;100019.19;5057637;28;20087;-70
2021/01/03 04:16:32;;;;;;;83.38;36.70;;;;;;;2.21;90.83;100014.03;5057249;28;20121;-70
2021/01/03 04:18:59;;;;;;;88.40;37.95;;;;;;;2.19;91.17;100015.84;5057515;28;20049;-70
2021/01/03 04:21:25;;;;;;;93.97;39.58;;;;;;;2.18;91.12;100014.09;5057355;28;20493;-70
2021/01/03 04:23:52;;;;;;;99.53;38.00;;;;;;;2.21;91.15;100024.56;5057185;28;20480;-70
2021/01/03 04:26:21;;;;;;;85.85;36.83;;;;;;;2.21;91.55;100021.91;5057646;28;20049;-70
2021/01/03 04:28:47;;;;;;;84.93;35.83;;;;;;;2.21;91.15;100016.66;5057358;28;20053;-70
2021/01/03 04:31:18;;;;;;;81.03;36.25;;;;;;;2.15;91.21;100008.94;5057226;28;20053;-70
2021/01/03 04:33:45;;;;;;;82.55;36.00;;;;;;;2.22;91.09;100009.63;5057038;28;20063;-70
2021/01/03 04:36:19;;;;;;;88.55;37.65;;;;;;;2.18;91.55;100019.34;5056088;28;20095;-70
2021/01/03 04:38:45;;;;;;;88.63;38.22;;;;;;;2.11;91.80;100002.88;5055735;28;20469;-70
2021/01/03 04:41:17;;;;;;;93.10;38.55;;;;;;;2.08;91.81;100003.00;5056935;28;20055;-70
2021/01/03 04:43:45;;;;;;;88.55;36.80;;;;;;;2.14;91.53;100007.22;5056941;28;20053;-70
2021/01/03 04:46:19;;;;;;;85.88;35.95;;;;;;;2.15;91.36;100017.72;5056887;28;20053;-70
2021/01/03 04:48:49;;;;;;;84.10;36.95;;;;;;;2.10;91.95;100005.56;5057080;28;20052;-70
2021/01/03 04:51:44;;;;;;;84.47;37.08;;;;;;;2.04;92.29;100001.34;5057231;28;20052;-70
2021/01/03 04:54:19;;;;;;;82.55;34.97;;;;;;;2.14;91.65;100013.31;5056785;28;20128;-70
2021/01/03 04:56:55;;;;;;;86.70;36.30;;;;;;;2.06;91.93;100001.31;5056618;28;20052;-71
2021/01/03 04:59:43;;;;;;;85.90;36.63;;;;;;;2.14;91.93;100023.00;5056624;28;20350;-70
2021/01/03 05:02:28;;;;;;;94.53;39.83;;;;;;;2.08;92.24;100017.91;5056754;28;20053;-70
2021/01/03 05:05:03;;;;;;;80.03;36.63;;;;;;;2.05;92.10;100018.00;5056864;28;20049;-70
2021/01/03 05:07:34;;;;;;;83.20;35.72;;;;;;;1.97;92.21;100005.06;5056701;28;20053;-70
2021/01/03 05:10:12;;;;;;;88.35;38.50;;;;;;;2.03;92.06;100016.25;5056578;28;20128;-70
2021/01/03 05:13:07;;;;;;;84.85;35.40;;;;;;;1.96;92.32;100009.44;5056461;28;20053;-70
2021/01/03 05:15:34;;;;;;;90.78;37.42;;;;;;;2.05;92.44;100018.00;5049544;28;20048;-70
2021/01/03 05:18:02;;;;;;;84.80;35.58;;;;;;;2.09;91.95;100009.97;5055499;28;20057;-70
2021/01/03 05:20:29;;;;;;;86.55;36.33;;;;;;;2.02;92.21;100011.91;5056280;28;20427;-70
2021/01/03 05:23:13;;;;;;;91.32;37.13;;;;;;;2.05;92.02;100018.00;5056245;28;20103;-70
2021/01/03 05:25:42;;;;;;;85.50;35.72;;;;;;;2.04;91.89;100006.59;5055419;28;20453;-70
2021/01/03 05:28:30;;;;;;;82.30;35.28;;;;;;;2.01;92.10;100012.81;5055961;28;20053;-70
2021/01/03 05:31:11;;;;;;;85.25;35.13;;;;;;;1.95;92.47;100010.34;5056072;28;20347;-70
2021/01/03 05:33:49;;;;;;;84.30;36.67;;;;;;;1.99;92.76;100021.66;5056016;28;20052;-70
2021/01/03 05:36:31;;;;;;;79.32;34.22;;;;;;;2.05;92.08;100015.38;5055871;28;20049;-70
2021/01/03 05:39:02;;;;;;;85.00;33.83;;;;;;;2.01;92.11;100018.09;5055895;28;20053;-69
2021/01/03 05:41:39;;;;;;;;;;;;;;;2.01;92.17;100022.47;5056365;28;20488;-69
2021/01/03 05:44:30;;;;;;;74.70;34.42;;;;;;;1.88;92.58;100017.56;5055809;28;20242;-70
2021/01/03 05:47:15;;;;;;;77.80;34.08;;;;;;;1.92;92.54;100023.59;5048916;28;20331;-70
2021/01/03 05:49:41;;;;;;;78.53;33.65;;;;;;;1.96;92.41;100025.22;5055702;28;20045;-70
2021/01/03 05:52:21;;;;;;;89.35;36.78;;;;;;;1.99;91.91;100019.91;5056051;28;20103;-70
2021/01/03 05:54:48;;;;;;;84.10;36.50;;;;;;;1.85;92.44;100009.75;5055585;28;20057;-70
2021/01/03 05:57:26;;;;;;;82.47;36.10;;;;;;;1.97;92.11;100019.06;5055517;28;20053;-70
2021/01/03 05:59:52;;;;;;;75.53;34.35;;;;;;;1.89;91.90;100006.13;5037928;28;20048;-70
2021/01/03 06:02:27;;;;;;;77.13;35.75;;;;;;;2.00;91.72;100029.53;5054252;28;20131;-70
2021/01/03 06:05:07;;;;;;;75.43;34.67;;;;;;;2.05;91.64;100028.53;5055403;28;20323;-70
2021/01/03 06:07:34;;;;;;;80.97;35.47;;;;;;;1.94;91.71;100027.06;5055491;28;20358;-70
2021/01/03 06:10:00;;;;;;;76.90;33.10;;;;;;;1.95;91.49;100015.63;5055280;28;20056;-70
2021/01/03 06:12:29;;;;;;;81.93;35.33;;;;;;;1.99;91.42;100035.69;5055475;28;20361;-69
2021/01/03 06:14:59;;;;;;;73.80;33.03;;;;;;;1.97;91.47;100032.22;5055501;28;20102;-68
2021/01/03 06:17:44;;;;;;;79.07;33.90;;;;;;;1.99;91.42;100043.59;5055389;28;20061;-69
2021/01/03 06:20:22;;;;;;;70.88;32.95;;;;;;;1.95;91.58;100027.94;5055421;28;20053;-69
2021/01/03 06:22:49;;;;;;;72.80;33.10;;;;;;;1.99;91.80;100027.78;5055326;28;20053;-69
2021/01/03 06:25:28;;;;;;;62.35;31.08;;;;;;;1.98;91.33;100036.59;5055057;28;20060;-69
2021/01/03 06:28:04;;;;;;;67.10;33.33;;;;;;;2.00;91.39;100034.78;5055166;28;20053;-69
2021/01/03 06:30:33;;;;;;;68.07;32.38;;;;;;;1.99;91.21;100032.19;5055168;28;20064;-69
2021/01/03 06:33:02;;;;;;;67.88;31.38;;;;;;;1.98;91.06;100033.97;5054993;28;20055;-69
2021/01/03 06:35:33;;;;;;;75.03;33.53;;;;;;;1.87;91.31;100025.50;5054831;28;20123;-69
2021/01/03 06:38:30;;;;;;;70.25;32.78;;;;;;;2.01;90.85;100035.63;5055128;28;20049;-69
2021/01/03 06:41:02;;;;;;;63.15;29.27;;;;;;;2.00;90.40;100041.81;5037172;28;20045;-69
2021/01/03 06:43:56;;;;;;;67.40;31.08;;;;;;;1.96;90.58;100033.13;5055002;28;20049;-69
2021/01/03 06:46:47;;;;;;;70.38;32.25;;;;;;;1.96;90.95;100034.91;5054885;28;20045;-69
2021/01/03 06:49:32;;;;;;;67.97;32.72;;;;;;;1.95;91.23;100035.81;5054817;28;20053;-69
2021/01/03 06:52:22;;;;;;;73.45;31.15;;;;;;;2.00;90.92;100040.06;5054642;28;20056;-68
2021/01/03 06:55:25;;;;;;;68.72;32.45;;;;;;;1.96;91.18;100038.41;5045415;28;20060;-69
2021/01/03 06:58:30;;;;;;;75.35;32.55;;;;;;;1.87;91.48;100043.91;5054713;28;20049;-69
2021/01/03 07:00:59;;;;;;;76.50;32.75;;;;;;;1.93;91.30;100020.06;5032695;28;20049;-69
2021/01/03 07:03:34;;;;;;;70.53;32.88;;;;;;;1.95;91.36;100039.31;5059041;28;20106;-69
2021/01/03 07:06:04;;;;;;;78.07;32.72;;;;;;;1.93;90.98;100033.22;5041172;28;20048;-69
2021/01/03 07:08:38;;;;;;;70.22;30.27;;;;;;;1.90;91.23;100041.19;5058797;28;20135;-69
2021/01/03 07:11:39;;;;;;;65.88;31.35;;;;;;;1.94;91.49;100036.72;5058860;28;20048;-69
2021/01/03 07:14:07;;;;;;;;;;;;;;;1.95;91.56;100044.56;5059091;28;20052;-69
2021/01/03 07:16:59;;;;;;;65.13;30.33;;;;;;;1.94;90.89;100042.84;5058538;28;19950;-69
2021/01/03 07:19:51;;;;;;;68.43;30.27;;;;;;;1.93;90.77;100038.50;5058586;28;20500;-69
2021/01/03 07:22:34;;;;;;;67.43;32.25;;;;;;;1.98;91.09;100043.63;5024668;28;20060;-69
2021/01/03 07:25:18;;;;;;;68.57;30.63;;;;;;;1.95;90.79;100044.56;5058504;28;20059;-70
2021/01/03 07:28:04;;;;;;;65.60;31.35;;;;;;;1.95;90.62;100046.34;5058426;28;20064;-69
2021/01/03 07:30:41;;;;;;;67.13;30.27;;;;;;;1.98;90.55;100043.63;5058400;28;20060;-71
2021/01/03 07:33:16;;;;;;;69.65;32.50;;;;;;;2.03;90.08;100047.84;5058724;28;20049;-71
2021/01/03 07:35:43;;;;;;;62.47;30.15;;;;;;;1.97;90.69;100039.28;5057092;28;20041;-72
2021/01/03 07:38:24;;;;;;;63.70;30.30;;;;;;;2.00;90.52;100049.69;5058163;28;20350;-72
2021/01/03 07:40:55;;;;;;;62.78;30.25;;;;;;;2.04;90.55;100054.00;5057455;28;20403;-70
2021/01/03 07:43:23;;;;;;;;;;;;;;;2.05;90.18;100050.44;5058748;28;20122;-74
2021/01/03 07:45:51;;;;;;;62.97;29.45;;;;;;;2.00;90.40;100052.34;5058146;28;20288;-71
2021/01/03 07:48:36;;;;;;;70.70;31.55;;;;;;;1.99;90.62;100050.63;5058186;28;20052;-70
2021/01/03 07:51:10;;;;;;;65.75;31.42;;;;;;;2.03;90.49;100055.75;5066610;28;20052;-69
2021/01/03 07:53:39;;;;;;;64.30;30.15;;;;;;;2.02;90.43;100051.38;5069219;28;20047;-70
2021/01/03 07:56:26;;;;;;;69.60;30.60;;;;;;;1.98;90.43;100054.16;5061637;28;20140;-69
2021/01/03 07:58:55;;;;;;;69.10;30.00;;;;;;;2.01;90.44;100054.06;5058128;28;20049;-70
2021/01/03 08:01:31;;;;;;;61.90;30.75;;;;;;;2.00;90.25;100054.97;5057992;28;20052;-70
2021/01/03 08:03:57;;;;;;;63.70;30.92;;;;;;;2.05;90.35;100054.88;5057829;28;20076;-69
2021/01/03 08:06:23;;;;;;;63.63;30.95;;;;;;;2.07;90.48;100053.03;5058611;28;20381;-69
2021/01/03 08:08:54;;;;;;;63.63;31.25;;;;;;;2.06;90.06;100059.22;5059654;28;20099;-69
2021/01/03 08:11:35;;;;;;;71.80;31.70;;;;;;;2.03;90.11;100066.28;5051862;28;20056;-69
2021/01/03 08:14:04;;;;;;;;;;;;;;;2.11;89.83;100058.19;5058815;28;20053;-68
2021/01/03 08:16:31;;;;;;;61.97;28.08;;;;;;;2.10;90.03;100055.56;5057059;28;20322;-68
2021/01/03 08:19:04;;;;;;;66.20;30.23;;;;;;;1.99;90.40;100064.66;5039265;28;20055;-67
2021/01/03 08:21:39;;;;;;;67.82;30.95;;;;;;;2.02;90.32;100059.28;5067939;28;20358;-69
2021/01/03 08:24:16;;;;;;;65.70;31.77;;;;;;;1.97;90.43;100057.69;5056757;28;20053;-69
2021/01/03 08:26:47;;;;;;;60.15;30.00;;;;;;;2.02;90.60;100066.34;5051927;28;20045;-68
2021/01/03 08:29:16;;;;;;;48.00;22.92;;;;;;;2.00;91.20;100069.00;5056994;28;20053;-70
2021/01/03 08:31:52;;;;;;;66.25;31.63;;;;;;;1.94;90.93;100074.44;5061864;28;20044;-68
2021/01/03 08:34:32;;;;;;;61.90;30.38;;;;;;;2.01;90.33;100070.72;5056557;28;20048;-68
2021/01/03 08:37:00;;;;;;;72.15;31.75;;;;;;;1.94;90.65;100071.81;5070037;28;20113;-67
2021/01/03 08:39:29;;;;;;;65.53;32.50;;;;;;;1.93;90.94;100077.09;5072754;28;20044;-69
2021/01/03 08:42:08;;;;;;;69.63;31.85;;;;;;;1.94;90.62;100058.63;5072349;28;20053;-68
2021/01/03 08:44:40;;;;;;;67.10;32.90;;;;;;;1.96;90.89;100072.63;5055670;28;20111;-69
2021/01/03 08:47:10;;;;;;;69.43;32.65;;;;;;;1.98;91.04;100069.94;5054529;28;20295;-69
2021/01/03 08:49:37;;;;;;;68.25;31.83;;;;;;;1.96;91.06;100072.63;5056821;28;20037;-69
2021/01/03 08:52:07;;;;;;;67.18;33.88;;;;;;;1.95;90.69;100076.16;5059197;28;20048;-69
2021/01/03 08:54:33;;;;;;;72.43;34.55;;;;;;;1.99;90.54;100071.66;5065846;28;20102;-70
2021/01/03 08:57:02;;;;;;;71.57;33.22;;;;;;;1.92;90.67;100076.25;5055443;28;20037;-69
2021/01/03 08:59:29;;;;;;;61.85;31.38;;;;;;;1.95;90.51;100073.53;5056090;28;20041;-69
2021/01/03 09:01:55;;;;;;;64.18;31.73;;;;;;;1.95;90.79;100064.78;5055897;28;20053;-71
2021/01/03 09:04:23;;;;;;;62.58;31.42;;;;;;;1.91;90.90;100077.16;5054782;28;20128;-69
2021/01/03 09:06:57;;;;;;;66.10;32.50;;;;;;;1.93;90.96;100077.97;5055864;28;20095;-69
2021/01/03 09:09:30;;;;;;;66.85;33.65;;;;;;;1.90;91.03;100078.91;5059030;28;20045;-69
2021/01/03 09:12:07;;;;;;;67.43;32.38;;;;;;;1.95;90.78;100076.16;5056166;28;20053;-69
2021/01/03 09:14:48;;;;;;;63.00;30.42;;;;;;;1.89;90.63;100074.56;5057029;28;20049;-69
2021/01/03 09:17:29;;;;;;;66.45;32.03;;;;;;;1.94;91.03;100077.06;5055493;28;20044;-69
2021/01/03 09:20:05;;;;;;;63.88;31.52;;;;;;;1.97;90.89;100082.22;5055073;28;20056;-69
2021/01/03 09:22:44;;;;;;;63.95;30.77;;;;;;;1.90;91.03;100081.56;5058310;28;20064;-69
2021/01/03 09:25:13;;;;;;;61.70;31.50;;;;;;;1.89;91.23;100094.75;5053366;28;20069;-68
2021/01/03 09:27:40;;;;;;;62.00;30.98;;;;;;;1.89;91.13;100090.34;5055355;28;20500;-69
2021/01/03 09:30:17;;;;;;;64.80;30.23;;;;;;;1.97;90.81;100095.41;5055980;28;20048;-69
2021/01/03 09:32:52;;;;;;;60.83;30.05;;;;;;;1.94;90.60;100087.59;5053760;28;20055;-70
2021/01/03 09:35:37;;;;;;;57.13;29.80;;;;;;;1.99;90.54;100095.38;5038136;28;20057;-69
2021/01/03 09:38:29;;;;;;;63.05;30.13;;;;;;;2.01;90.41;100101.44;5035162;28;20052;-72
2021/01/03 09:40:57;;;;;;;;;;;;;;;2.04;90.42;100096.13;5054875;28;20389;-71
2021/01/03 09:43:36;;;;;;;56.08;27.65;;;;;;;2.11;90.04;100099.44;5053521;28;19924;-69
2021/01/03 09:46:17;;;;;;;59.72;29.88;;;;;;;2.07;89.88;100100.44;5055020;28;20046;-71
2021/01/03 09:48:43;;;;;;;60.05;27.67;;;;;;;2.16;90.16;100105.44;5054333;28;20378;-70
2021/01/03 09:51:21;;;;;;;57.97;28.25;;;;;;;2.18;89.82;100098.34;5055319;28;20044;-70
2021/01/03 09:54:01;;;;;;;55.75;26.60;;;;;;;2.15;89.16;100103.72;5053123;28;20045;-71
2021/01/03 09:56:33;;;;;;;54.28;28.05;;;;;;;2.06;89.07;100093.44;5056617;28;20091;-70
2021/01/03 09:59:12;;;;;;;50.22;24.95;;;;;;;2.14;87.96;100107.25;5055016;28;20056;-70
2021/01/03 10:01:39;;;;;;;49.58;25.35;;;;;;;2.12;88.37;100093.28;5051531;28;20045;-69
2021/01/03 10:04:40;;;;;;;50.78;26.17;;;;;;;2.10;87.86;100098.59;5052385;28;20053;-70
2021/01/03 10:07:14;;;;;;;49.35;25.20;;;;;;;2.14;87.64;100091.47;5052193;28;20048;-70
2021/01/03 10:09:54;;;;;;;46.03;24.27;;;;;;;2.11;87.65;100094.16;5054082;28;20052;-68
2021/01/03 10:12:34;;;;;;;51.10;25.85;;;;;;;2.08;87.80;100086.38;5052827;28;20053;-69
2021/01/03 10:15:07;;;;;;;46.13;25.45;;;;;;;2.11;88.00;100091.53;5053707;28;20381;-68
2021/01/03 10:17:34;;;;;;;46.95;24.95;;;;;;;2.10;87.45;100095.06;5050463;28;20107;-71
2021/01/03 10:20:15;;;;;;;47.45;23.85;;;;;;;2.07;88.28;100079.38;5042320;28;20095;-68
2021/01/03 10:22:44;;;;;;;43.72;22.30;;;;;;;2.14;86.57;100081.78;5061482;28;20052;-70
2021/01/03 10:25:16;;;;;;;44.03;22.80;;;;;;;2.12;86.89;100077.50;5054880;28;20101;-68
2021/01/03 10:28:11;;;;;;;39.13;22.25;;;;;;;2.11;86.65;100070.47;5057745;28;20045;-74
2021/01/03 10:30:38;;;;;;;43.60;23.33;;;;;;;2.22;86.14;100083.38;5052622;28;20469;-69
2021/01/03 10:33:05;;;;;;;40.50;20.67;;;;;;;2.25;85.17;100086.78;5054702;28;20072;-69
2021/01/03 10:35:32;;;;;;;40.00;21.70;;;;;;;2.24;85.95;100076.28;5054663;28;20296;-69
2021/01/03 10:37:58;;;;;;;37.83;19.30;;;;;;;2.30;84.96;100086.66;5054758;28;20057;-69
2021/01/03 10:40:25;;;;;;;33.80;19.55;;;;;;;2.26;85.27;100087.63;5054658;28;20057;-70
2021/01/03 10:42:51;;;;;;;33.67;19.20;;;;;;;2.33;85.38;100080.44;5054479;28;20048;-71
2021/01/03 10:45:20;;;;;;;36.33;19.55;;;;;;;2.38;85.02;100079.38;5054965;28;20106;-69
2021/01/03 10:47:46;;;;;;;34.28;20.05;;;;;;;2.43;84.51;100081.88;5053362;28;20060;-71
2021/01/03 10:50:14;;;;;;;32.17;18.40;;;;;;;2.43;83.41;100071.34;5055073;28;20053;-72
2021/01/03 10:52:43;;;;;;;20.58;12.80;;;;;;;2.39;83.96;100080.25;5053691;28;20427;-69
2021/01/03 10:55:09;;;;;;;31.70;17.77;;;;;;;2.52;83.49;100080.75;5054374;28;20048;-68
2021/01/03 10:57:36;;;;;;;29.85;17.67;;;;;;;2.46;83.59;100087.06;5054575;28;20077;-69
2021/01/03 11:00:05;;;;;;;31.27;17.48;;;;;;;2.48;83.93;100090.53;5057573;28;20057;-69
2021/01/03 11:02:31;;;;;;;29.00;17.02;;;;;;;2.49;83.76;100080.81;5054401;28;20041;-72
2021/01/03 11:04:57;;;;;;;28.08;16.25;;;;;;;2.47;83.24;100078.25;5059844;28;20053;-70
2021/01/03 11:07:23;;;;;;;33.60;17.67;;;;;;;2.50;83.01;100078.16;5061384;28;20485;-72
2021/01/03 11:09:50;;;;;;;31.13;17.20;;;;;;;2.61;82.84;100080.47;5056900;28;20118;-71
2021/01/03 11:12:18;;;;;;;25.45;15.85;;;;;;;2.65;82.70;100076.84;5056548;28;20056;-71
2021/01/03 11:14:44;;;;;;;28.30;16.33;;;;;;;2.50;82.85;100059.72;5056948;28;20053;-71
2021/01/03 11:17:13;;;;;;;26.10;14.95;;;;;;;2.58;82.17;100055.06;5064124;28;20048;-69
2021/01/03 11:19:39;;;;;;;25.77;15.20;;;;;;;2.62;81.59;100050.56;5053605;28;20080;-72
2021/01/03 11:22:08;;;;;;;23.67;14.25;;;;;;;2.71;81.28;100068.78;5053884;28;20048;-71
2021/01/03 11:24:36;;;;;;;25.92;16.48;;;;;;;2.62;81.56;100065.53;5053801;28;20135;-75
2021/01/03 11:27:04;;;;;;;20.85;13.18;;;;;;;2.71;81.57;100063.50;5052967;28;20599;-73
2021/01/03 11:29:48;;;;;;;22.65;13.95;;;;;;;2.67;80.63;100064.50;5054071;28;20390;-71
2021/01/03 11:32:17;;;;;;;18.73;12.77;;;;;;;2.78;79.91;100069.44;5058132;28;20095;-71
2021/01/03 11:34:44;;;;;;;24.23;13.90;;;;;;;2.69;81.25;100056.53;5056351;28;20052;-71
2021/01/03 11:37:16;;;;;;;20.80;13.77;;;;;;;2.67;80.61;100058.38;5052683;28;20069;-70
2021/01/03 11:39:43;;;;;;;20.88;13.40;;;;;;;2.76;81.24;100060.72;5053214;28;20049;-70
2021/01/03 11:42:15;;;;;;;17.45;12.98;;;;;;;2.78;80.52;100066.78;5036592;28;20053;-73